Sandman Inferno

Sunday, February 19, 2017 07:16 (GMT+2) - Final results

Race info
Sport: Duathlon - bike and run
Location: Middelkerke, Belgium
Start type: Mass start
Racers: 103
Timed on: iPad
Timed with: Webscorer PRO 2.4
Updated: Sunday, February 11, 2018 14:26 (GMT+2)

Contact organizer

Use this form to send an email to the organizer.

Your name
Your email address
Confirm email address
Message to organizer
Send

Sandman Inferno

Place Bib Racer name Affiliation Category Gender Finish time
112Coddens, KrisKris Coddens HerenM 2:36:05.4--100%22.64%20.79%
249Van Den Buverie, HansHerenM 2:37:49.3+1:43.9+1.11%98.90%21.78%19.91%
3259Need 4 SpeedSerge Deblauwe/Filip Pattyn DuoM 2:41:45.5+5:40.1+3.63%96.50%19.83%17.91%
4253Dewelzijnscoach.BeJeroen Swinnen-HansJurgen Verselder DuoM 2:42:21.3+6:15.9+4.01%96.14%19.54%17.61%
589Himpe, Cederic HerenM 2:43:18.0+7:12.6+4.62%95.58%19.07%17.13%
6265Bram JakobCoussement Vanwijmelbeke DuoM 2:43:31.0+7:25.6+4.76%95.46%18.96%17.02%
764Declerck, KristofTemptation HerenM 2:44:11.3+8:05.9+5.19%95.07%18.63%16.68%
8260Beauty And The BeastAnnelies Deketelaere/Steve Dewitte DuoF/M 2:48:31.6+12:26.2+7.97%92.62%16.48%14.48%
994Dalle, Dany Masters HerenM 2:50:23.6+14:18.2+9.16%91.61%15.55%13.53%
10254PlezandDavy Thielens - Vincent Danneel DuoM 2:50:47.0+14:41.6+9.41%91.40%15.36%13.33%
118Cardon, GermerGermer Cardon HerenM 2:51:16.8+15:11.4+9.73%91.13%15.11%13.08%
1255Verlet, BenjaminNone HerenM 2:52:11.9+16:06.5+10.32%90.65%14.66%12.61%
13256Kesteleyn, BramChristoph Schelfhout DuoM 2:52:19.5+16:14.1+10.40%90.58%14.60%12.55%
1469Pieter, FiersWe R Heroes HerenM 2:52:28.0+16:22.6+10.49%90.50%14.53%12.48%
1544Rondelez, BjornBeachbikers Vzw Masters HerenM 2:52:55.3+16:49.9+10.78%90.27%14.30%12.25%
1633Hamerlinck, Steven Masters HerenM 2:53:50.8+17:45.4+11.38%89.79%13.84%11.78%
17252LangemarknaersDominique Alleman/Jonas Bryon DuoM 2:56:05.8+20:00.4+12.82%88.64%12.73%10.64%
1827Dryepondt, PeterPeter Masters HerenM 2:58:08.5+22:03.1+14.13%87.62%11.71%9.60%
1990Dekeerschiater, Sam HerenM 2:58:17.3+22:11.9+14.22%87.55%11.64%9.52%
20266MPI ErsRys Steubant DuoM 2:58:22.2+22:16.8+14.27%87.51%11.60%9.48%
2123Devoldere, NikiNiki Devoldere Masters HerenM 2:59:01.9+22:56.5+14.70%87.19%11.27%9.15%
2214De Fauw, BrechtBRM Cycling HerenM 2:59:07.7+23:02.3+14.76%87.14%11.22%9.10%
237Bultynck, FrankOctopus Masters HerenM 3:00:04.3+23:58.9+15.36%86.68%10.76%8.62%
24262De Stieve KietenDesmet Ruben / Niville Lino DuoM 3:01:53.6+25:48.2+16.53%85.81%9.85%7.69%
256Brissinck, JohanMasters HerenM 3:05:09.5+29:04.1+18.62%84.30%8.24%6.04%
2676Van De Vijver, MaartenAd App HerenM 3:05:42.6+29:37.2+18.98%84.05%7.96%5.76%
271Ardilles BrothersHans Ardeel - Justin Vandenabeele DuoM 3:06:00.3+29:54.9+19.17%83.92%7.82%5.61%
2817De Mulder, Diedrik HerenM 3:06:06.5+30:01.1+19.23%83.87%7.76%5.55%
2993Bruyninck, Jonathan HerenM 3:06:14.2+30:08.8+19.31%83.81%7.70%5.49%
30258De Wever, KoenBirger Deconink DuoM 3:06:56.6+30:51.2+19.77%83.50%7.35%5.13%
3143Roelandt, Inge12BO4 Masters DamesF 3:08:50.7+32:45.3+20.98%82.66%6.41%4.17%
3252Vanhove, Koenraad HerenM 3:09:34.3+33:28.9+21.45%82.34%6.05%3.80%
3332Gheysens, KoenNone Masters HerenM 3:09:51.5+33:46.1+21.63%82.21%5.91%3.65%
3479DAVID, RomualdTri Laneuveville HerenM 3:11:08.5+35:03.1+22.46%81.66%5.27%3.00%
3541Poppe, JefL3A HerenM 3:11:40.7+35:35.3+22.80%81.43%5.00%2.73%
3619Deeren, JanMidlon HerenM 3:12:40.9+36:35.5+23.44%81.01%4.51%2.22%
3747Stubbe, JoeriStubbe Joeri HerenM 3:13:14.5+37:09.1+23.80%80.77%4.23%1.93%
3845Sey, BarryWacky Racers Masters HerenM 3:13:34.0+37:28.6+24.01%80.64%4.07%1.77%
3982Stefaan, VanrooseNone HerenM 3:14:06.1+38:00.7+24.35%80.42%3.80%1.50%
4087Vanacker, Stijn HerenM 3:14:20.1+38:14.7+24.50%80.32%3.69%1.38%
4177Pollet, MarcDe Putters Masters HerenM 3:14:43.1+38:37.7+24.75%80.16%3.50%1.18%
4246Spysschaert, DirkDirk Spysschaert Masters HerenM 3:14:52.5+38:47.1+24.85%80.10%3.42%1.11%
4386Pylyser, Steve Masters HerenM 3:15:08.2+39:02.8+25.02%79.99%3.29%0.97%
445Brackman, ThierryThierry Masters HerenM 3:17:03.2+40:57.8+26.24%79.21%2.34%0.00%
4520Desille, JackTBT Licence 26279M64 Masters HerenM 3:17:46.8+41:41.4+26.71%78.92%1.98%-0.37%
4691Van Renterghem, Tom HerenM 3:18:08.4+42:03.0+26.94%78.78%1.80%-0.55%
473Bonamie, DaveyDavey Bonamie HerenM 3:18:46.6+42:41.2+27.35%78.53%1.49%-0.87%
4810Claeren, JanJan Claeren HerenM 3:18:51.0+42:45.6+27.39%78.50%1.45%-0.91%
4961Bultynck, KristofETZ HerenM 3:18:59.6+42:54.2+27.49%78.44%1.38%-0.98%
5038Leuwers, PeterTTI HerenM 3:19:03.2+42:57.8+27.52%78.42%1.35%-1.01%
5175Willaert, JustinGeen HerenM 3:19:13.0+43:07.6+27.63%78.35%1.27%-1.10%
5281Verbrugghen, JohanJohan Verbrugghen Masters HerenM 3:19:52.4+43:47.0+28.05%78.09%0.94%-1.43%
5383Embo, KasperNone HerenM 3:20:50.7+44:45.3+28.67%77.72%0.46%-1.92%
5424Dewulf, KurtMidlon Masters HerenM 3:21:51.3+45:45.9+29.32%77.33%-0.04%-2.44%
55263De Stieve Kieten 2Dominick Vermander - Donald De Jonge DuoM 3:22:28.8+46:23.4+29.72%77.09%-0.35%-2.75%
5631Geldhof, PeterGeen Masters HerenM 3:23:13.4+47:08.0+30.20%76.81%-0.72%-3.13%
5751Vandenberghe, NicoVdberghe HerenM 3:24:02.4+47:57.0+30.72%76.50%-1.12%-3.55%
5822Devolder, TimBrugge Masters HerenM 3:24:10.7+48:05.3+30.81%76.45%-1.19%-3.62%
5930Fioen, HaroldIndividuele Inschrijving. Masters HerenM 3:25:10.2+49:04.8+31.44%76.08%-1.68%-4.12%
6053Vanslembrouck, ThijsTrirunderwearteam HerenM 3:26:23.7+50:18.3+32.23%75.63%-2.29%-4.74%
6185Cottenie, Johan Masters HerenM 3:26:40.2+50:34.8+32.40%75.53%-2.43%-4.88%
6242Pylyser, PeterOCTOPUS SPORTCLUB HerenM 3:31:02.7+54:57.3+35.21%73.96%-4.59%-7.10%
6334Hillewaere, DriesOostkamp Masters HerenM 3:32:58.5+56:53.1+36.44%73.29%-5.55%-8.08%
6484Willems, Berten Masters HerenM 3:33:35.4+57:30.0+36.84%73.08%-5.86%-8.39%
6554Velle, MarchalMasters HerenM 3:35:08.8+59:03.4+37.84%72.55%-6.63%-9.18%
6648Taillieu, ChristopheMasters HerenM 3:35:50.9+59:45.5+38.28%72.31%-6.97%-9.54%
6757Verschaeren, TimNA HerenM 3:38:12.2+1:02:06.8+39.79%71.53%-8.14%-10.73%
68261RAW-CChristophe Cool & Christophe Lefebvre DuoM 3:39:06.3+1:03:00.9+40.37%71.24%-8.59%-11.19%
69255Tom & WimTom Vandenbussche DuoM 3:40:47.0+1:04:41.6+41.45%70.70%-9.42%-12.04%
7025710-10-30vanhoencker Ewoud-Ghyselbrecht Nathalie DuoF/M 3:42:00.6+1:05:55.2+42.23%70.31%-10.03%-12.66%
7126Dobbelaere, Steven HerenM 3:42:05.0+1:05:59.6+42.28%70.28%-10.06%-12.70%
7215De Mey, WimWim De Mey HerenM 3:44:15.8+1:08:10.4+43.68%69.60%-11.15%-13.81%
7380Muylaert, BorisBoris Muylaert HerenM 3:48:03.3+1:11:57.9+46.10%68.44%-13.02%-15.73%
7440Nagels, StevenOostende HerenM 3:50:51.3+1:14:45.9+47.90%67.61%-14.41%-17.15%
7574Wauters, BirgitManke Pony DamesF 3:52:27.6+1:16:22.2+48.93%67.15%-15.21%-17.97%
76264Vyncke, MiekMaldegem DuoF 3:53:56.7+1:17:51.3+49.88%66.72%-15.94%-18.72%
7765Despeghel, IsabelleIsabelle Despeghel Masters DamesF 3:56:34.4+1:20:29.0+51.56%65.98%-17.25%-20.06%
7867Haywood, RickRick Haywood HerenM 3:58:26.7+1:22:21.3+52.76%65.46%-18.17%-21.01%
7966Haex, MarcStabroek Masters HerenM 4:07:20.6+1:31:15.2+58.46%63.11%-22.58%-25.52%
8056Verschaeren, HansNA Masters HerenM 4:08:43.9+1:32:38.5+59.35%62.75%-23.27%-26.23%
8192Delanote, Benjamin HerenM 4:09:07.3+1:33:01.9+59.60%62.66%-23.47%-26.42%
8263De Ridder, QuintenNon HerenM 4:20:13.3+1:44:07.9+66.71%59.98%-28.97%-32.06%
8368Honraet, KrisKris Honraet HerenM 4:28:25.1+1:52:19.7+71.96%58.15%-33.03%-36.22%
844Bostoen, KoenKoen Bostoen HerenM 4:38:01.8+2:01:56.4+78.12%56.14%-37.79%-41.09%
8550Van Quathem, DavyKoen Bostoen HerenM 4:38:33.2+2:02:27.8+78.46%56.04%-38.05%-41.36%
8659Vivier, Michael Masters HerenM 4:45:32.2+2:09:26.8+82.93%54.67%-41.51%-44.90%
8788Katrien, Pintelon Masters HerenF 4:55:47.3+2:19:41.9+89.50%52.77%-46.59%-50.11%
-2Baessens, FilipOostende Masters HerenM DNF-----
-9Christophe, LahayeLahaye Christophe HerenM DNF-----
-13Cogghe, JeroenDiksmuide HerenM DNF-----
-16De Mooij, Jaryd HerenM DNF-----
-18Decoo, WillemWillem Decoo Masters HerenM DNF-----
-21Devoghel, Jeroen HerenM DNF-----
-25Dildick, AndreAndre Dildick HerenM DNF-----
-28Duyck, PieterLandmeetkunde Duyck HerenM DNF-----
-29Fabel, Jonas HerenM DNF-----
-35Jacquemijns, JeroenPajots Triatlon Team HerenM DNF-----
-37Latruwe, DimitriTTI HerenM DNF-----
-39Nagels, LoranSteven En Loran HerenM DNF-----
-60Acx, KrisEnergy Team Zuidwest Masters HerenM DNF-----
-78Buffel, BrunoBruno Buffel Masters HerenM DNF-----
-251Rijckx / Houben, Robby En RafRobby En Raf Rijckx / Houben DuoM DNF-----
-58Vervust, BenjaminGeen HerenM DSQ-----